Time;durP1;ratioP1;P1;durP2;ratioP2;P2;SDS_P1;SDS_P2;PMS_P1;PMS_P2;Temp;Humidity;BMP_temperature;BMP_pressure;BME280_temperature;BME280_humidity;BME280_pressure;Samples;Min_cycle;Max_cycle;Signal;HPM_P1;HPM_P2
2021/10/26 00:02:01;;;;;;;11.73;8.30;;;2.90;99.90;;;;;;5020938;28;20136;-81
2021/10/26 00:04:28;;;;;;;12.13;7.97;;;2.80;99.90;;;;;;5033482;28;20140;-80
2021/10/26 00:06:55;;;;;;;11.48;7.93;;;2.70;99.90;;;;;;5033627;28;20049;-81
2021/10/26 00:09:22;;;;;;;14.88;9.23;;;2.70;99.90;;;;;;5033470;28;20068;-81
2021/10/26 00:11:49;;;;;;;11.98;8.70;;;2.70;99.90;;;;;;5034108;28;20092;-80
2021/10/26 00:14:16;;;;;;;16.67;10.23;;;2.70;99.90;;;;;;5034066;28;20085;-80
2021/10/26 00:16:43;;;;;;;18.63;9.95;;;2.80;99.90;;;;;;5033721;28;20461;-80
2021/10/26 00:19:10;;;;;;;17.75;9.60;;;2.70;99.90;;;;;;5034456;28;20128;-81
2021/10/26 00:21:37;;;;;;;14.30;9.60;;;2.70;99.90;;;;;;5034859;28;20109;-81
2021/10/26 00:24:04;;;;;;;14.30;10.18;;;2.70;99.90;;;;;;5035217;28;20053;-81
2021/10/26 00:26:31;;;;;;;13.65;8.45;;;2.70;99.90;;;;;;5033438;28;20570;-80
2021/10/26 00:28:58;;;;;;;18.05;9.38;;;2.70;99.90;;;;;;5033722;28;20080;-81
2021/10/26 00:31:25;;;;;;;14.35;9.85;;;2.70;99.90;;;;;;5035251;28;20045;-81
2021/10/26 00:33:52;;;;;;;12.70;9.65;;;2.70;99.90;;;;;;5034025;28;20104;-80
2021/10/26 00:36:19;;;;;;;12.65;9.23;;;2.70;99.90;;;;;;5033520;28;20132;-81
2021/10/26 00:38:46;;;;;;;11.55;9.13;;;2.60;99.90;;;;;;5034445;28;20136;-80
2021/10/26 00:41:14;;;;;;;12.15;10.45;;;2.60;99.90;;;;;;5034521;28;20049;-81
2021/10/26 00:43:41;;;;;;;16.13;10.90;;;2.50;99.90;;;;;;5035309;28;20132;-80
2021/10/26 00:46:08;;;;;;;14.40;10.10;;;2.60;99.90;;;;;;5033525;28;20076;-81
2021/10/26 00:48:36;;;;;;;16.05;11.05;;;2.60;99.90;;;;;;5033755;28;20041;-80
2021/10/26 00:51:07;;;;;;;15.50;10.82;;;2.60;99.90;;;;;;5033437;28;20081;-80
2021/10/26 00:53:34;;;;;;;14.60;10.68;;;2.60;99.90;;;;;;5033797;28;20046;-80
2021/10/26 00:56:01;;;;;;;16.50;10.88;;;2.50;99.90;;;;;;5034607;28;20486;-81
2021/10/26 00:58:27;;;;;;;18.38;11.80;;;2.40;99.90;;;;;;5033659;28;20132;-80
2021/10/26 01:00:54;;;;;;;17.00;11.52;;;2.40;99.90;;;;;;5033335;28;20506;-81
2021/10/26 01:03:21;;;;;;;15.43;10.63;;;2.40;99.90;;;;;;5032968;28;20068;-81
2021/10/26 01:05:48;;;;;;;14.32;10.13;;;2.50;99.90;;;;;;5034268;28;20084;-81
2021/10/26 01:08:15;;;;;;;16.98;10.00;;;2.50;99.90;;;;;;5034727;28;20495;-80
2021/10/26 01:10:42;;;;;;;15.02;10.65;;;2.40;99.90;;;;;;5034601;28;20569;-80
2021/10/26 01:13:09;;;;;;;17.60;11.57;;;2.40;99.90;;;;;;5033359;28;20092;-81
2021/10/26 01:15:36;;;;;;;18.02;11.75;;;2.50;99.90;;;;;;5033195;28;20073;-80
2021/10/26 01:18:02;;;;;;;14.02;10.70;;;2.40;99.90;;;;;;5033362;28;20046;-81
2021/10/26 01:20:29;;;;;;;15.57;10.85;;;2.40;99.90;;;;;;5036856;28;20400;-82
2021/10/26 01:22:56;;;;;;;17.02;10.98;;;2.30;99.90;;;;;;5041541;28;20459;-82
2021/10/26 01:25:22;;;;;;;15.00;11.18;;;2.30;99.90;;;;;;5040083;28;20418;-82
2021/10/26 01:27:54;;;;;;;20.85;12.65;;;2.40;99.90;;;;;;5039725;28;20080;-82
2021/10/26 01:30:33;;;;;;;14.52;11.35;;;2.40;99.90;;;;;;5039756;28;20091;-82
2021/10/26 01:33:02;;;;;;;17.42;11.15;;;2.40;99.90;;;;;;5039897;28;20132;-82
2021/10/26 01:35:29;;;;;;;17.73;11.48;;;2.50;99.90;;;;;;5039855;28;20081;-82
2021/10/26 01:37:56;;;;;;;14.85;10.13;;;2.40;99.90;;;;;;5039574;28;20080;-82
2021/10/26 01:40:24;;;;;;;17.58;11.18;;;2.40;99.90;;;;;;5039860;28;20475;-82
2021/10/26 01:42:52;;;;;;;18.60;12.07;;;2.50;99.90;;;;;;5038944;28;20132;-82
2021/10/26 01:45:19;;;;;;;17.95;11.18;;;2.40;99.90;;;;;;5039491;28;20502;-83
2021/10/26 01:47:46;;;;;;;20.50;12.85;;;2.40;99.90;;;;;;5039905;28;20096;-82
2021/10/26 01:50:17;;;;;;;26.85;14.05;;;2.40;99.90;;;;;;5040965;28;20455;-82
2021/10/26 01:52:45;;;;;;;22.35;14.40;;;2.30;99.90;;;;;;5039121;28;20136;-82
2021/10/26 01:55:13;;;;;;;17.35;11.93;;;2.40;99.90;;;;;;5039453;28;20054;-82
2021/10/26 01:57:39;;;;;;;14.23;10.35;;;2.40;99.90;;;;;;5039568;28;20486;-82
2021/10/26 02:00:09;;;;;;;16.20;11.20;;;2.50;99.90;;;;;;5039139;28;20132;-82
2021/10/26 02:02:36;;;;;;;18.50;10.68;;;2.50;99.90;;;;;;5038733;28;20384;-82
2021/10/26 02:05:04;;;;;;;23.77;12.52;;;2.60;99.90;;;;;;5038603;28;20057;-82
2021/10/26 02:07:31;;;;;;;18.02;12.90;;;2.50;99.90;;;;;;5039171;28;20144;-82
2021/10/26 02:09:58;;;;;;;22.25;14.10;;;2.50;99.90;;;;;;5038693;28;20171;-82
2021/10/26 02:12:25;;;;;;;25.20;14.98;;;2.70;99.90;;;;;;5040749;28;20045;-82
2021/10/26 02:14:51;;;;;;;26.15;16.77;;;2.90;99.90;;;;;;5039002;28;20049;-82
2021/10/26 02:17:18;;;;;;;25.08;16.85;;;3.00;99.90;;;;;;5038636;28;20136;-82
2021/10/26 02:19:45;;;;;;;35.03;17.92;;;3.20;99.90;;;;;;5040416;28;20049;-82
2021/10/26 02:22:11;;;;;;;40.15;19.67;;;3.30;99.90;;;;;;5038684;28;20104;-82
2021/10/26 02:24:38;;;;;;;37.97;20.58;;;3.30;99.90;;;;;;5038822;28;20136;-82
2021/10/26 02:27:05;;;;;;;30.48;18.40;;;3.40;99.90;;;;;;5037156;28;20049;-82
2021/10/26 02:29:32;;;;;;;22.70;17.13;;;3.60;99.90;;;;;;5037602;28;20112;-82
2021/10/26 02:31:59;;;;;;;27.35;16.88;;;3.60;99.90;;;;;;5037194;28;20073;-82
2021/10/26 02:34:25;;;;;;;26.60;17.25;;;3.60;99.90;;;;;;5037312;28;20384;-82
2021/10/26 02:36:52;;;;;;;22.40;15.23;;;3.70;99.90;;;;;;5038360;28;20073;-82
2021/10/26 02:39:19;;;;;;;32.03;18.42;;;3.80;99.90;;;;;;5038551;28;20069;-82
2021/10/26 02:41:46;;;;;;;25.05;16.35;;;3.90;99.90;;;;;;5038387;28;20073;-82
2021/10/26 02:44:13;;;;;;;30.35;16.63;;;4.00;99.90;;;;;;5038296;28;20053;-82
2021/10/26 02:46:40;;;;;;;21.25;14.00;;;3.90;99.90;;;;;;5037791;28;20506;-82
2021/10/26 02:49:07;;;;;;;20.65;13.02;;;4.00;99.90;;;;;;5038440;28;20414;-82
2021/10/26 02:51:34;;;;;;;20.45;13.55;;;3.90;99.90;;;;;;5038135;28;20128;-82
2021/10/26 02:54:01;;;;;;;22.30;13.07;;;4.10;99.90;;;;;;5038401;28;20073;-82
2021/10/26 02:56:28;;;;;;;18.38;13.35;;;4.10;99.90;;;;;;5038329;28;20415;-82
2021/10/26 02:58:55;;;;;;;22.60;13.90;;;4.20;99.90;;;;;;5038391;28;20045;-82
2021/10/26 03:01:21;;;;;;;19.98;13.38;;;4.30;99.90;;;;;;5039754;28;20113;-83
2021/10/26 03:03:51;;;;;;;17.77;12.55;;;4.30;99.90;;;;;;5059391;28;20048;-82
2021/10/26 03:06:17;;;;;;;15.55;12.02;;;4.40;99.90;;;;;;5040936;28;20079;-82
2021/10/26 03:08:46;;;;;;;16.23;11.43;;;4.40;99.90;;;;;;5041612;28;20056;-82
2021/10/26 03:11:13;;;;;;;17.50;12.93;;;4.50;99.90;;;;;;5040549;28;20100;-82
2021/10/26 03:13:40;;;;;;;26.80;14.48;;;4.50;99.90;;;;;;5072405;22;20148;-80
2021/10/26 03:16:07;;;;;;;20.08;13.35;;;4.40;99.90;;;;;;5058187;28;20055;-80
2021/10/26 03:18:34;;;;;;;22.05;13.25;;;4.40;99.90;;;;;;5058346;28;20044;-80
2021/10/26 03:21:01;;;;;;;17.75;12.02;;;4.40;99.90;;;;;;5058194;28;20127;-80
2021/10/26 03:23:28;;;;;;;20.08;13.73;;;4.50;99.90;;;;;;5058456;28;20564;-80
2021/10/26 03:25:55;;;;;;;20.70;12.52;;;4.60;99.90;;;;;;5075726;28;20052;-80
2021/10/26 03:28:21;;;;;;;20.73;13.98;;;4.70;99.90;;;;;;5058078;28;20140;-80
2021/10/26 03:30:48;;;;;;;16.15;11.65;;;4.70;99.90;;;;;;5057826;28;20135;-81
2021/10/26 03:33:15;;;;;;;16.95;10.95;;;4.70;99.90;;;;;;5058135;28;20088;-81
2021/10/26 03:35:41;;;;;;;17.17;10.77;;;4.80;99.90;;;;;;5075459;28;20557;-80
2021/10/26 03:38:08;;;;;;;20.85;12.32;;;4.70;99.90;;;;;;5057340;28;20132;-81
2021/10/26 03:40:36;;;;;;;16.50;11.95;;;4.70;99.90;;;;;;5058046;28;20533;-80
2021/10/26 03:43:05;;;;;;;16.77;12.23;;;4.80;99.90;;;;;;5058332;28;20139;-80
2021/10/26 03:45:32;;;;;;;17.55;11.68;;;4.80;99.90;;;;;;5057361;28;20049;-80
2021/10/26 03:47:59;;;;;;;17.95;11.50;;;4.80;99.90;;;;;;5075155;28;20084;-81
2021/10/26 03:50:25;;;;;;;17.33;10.88;;;4.80;99.90;;;;;;5057618;28;20167;-81
2021/10/26 03:52:52;;;;;;;20.70;12.57;;;4.80;99.90;;;;;;5075471;28;20135;-81
2021/10/26 03:55:20;;;;;;;20.58;12.10;;;4.80;99.90;;;;;;5065758;22;21012;-82
2021/10/26 03:57:47;;;;;;;16.20;11.88;;;4.80;99.90;;;;;;5061214;28;20072;-82
2021/10/26 04:00:14;;;;;;;25.27;13.55;;;4.90;99.90;;;;;;5060821;28;20139;-82
2021/10/26 04:02:42;;;;;;;25.05;14.18;;;4.90;99.90;;;;;;5060981;28;20076;-82
2021/10/26 04:05:18;;;;;;;20.73;14.13;;;4.80;99.90;;;;;;5060493;28;20453;-82
2021/10/26 04:07:52;;;;;;;18.17;14.02;;;4.80;99.90;;;;;;5060998;28;20076;-82
2021/10/26 04:10:31;;;;;;;23.73;14.27;;;4.90;99.90;;;;;;5060207;28;20083;-82
2021/10/26 04:13:02;;;;;;;17.98;12.77;;;5.00;99.90;;;;;;5060587;28;20094;-82
2021/10/26 04:15:30;;;;;;;23.10;12.75;;;5.10;99.90;;;;;;5078798;28;20044;-82
2021/10/26 04:17:57;;;;;;;27.27;13.73;;;5.20;99.90;;;;;;5060493;28;20147;-82
2021/10/26 04:20:23;;;;;;;20.88;12.80;;;5.10;99.90;;;;;;5086331;22;20048;-82
2021/10/26 04:22:50;;;;;;;24.52;13.73;;;5.10;99.90;;;;;;5056481;28;20052;-82
2021/10/26 04:25:17;;;;;;;21.23;12.90;;;5.10;99.90;;;;;;5056835;28;20135;-82
2021/10/26 04:27:44;;;;;;;39.50;14.98;;;5.10;99.90;;;;;;5056348;28;20135;-82
2021/10/26 04:30:11;;;;;;;23.58;12.25;;;5.10;99.90;;;;;;5074592;28;20131;-82
2021/10/26 04:32:39;;;;;;;25.13;13.15;;;5.10;99.90;;;;;;5074186;28;20517;-82
2021/10/26 04:35:06;;;;;;;18.88;10.85;;;5.10;99.90;;;;;;5056866;28;20488;-81
2021/10/26 04:37:34;;;;;;;12.20;9.95;;;5.10;99.90;;;;;;5056256;28;20048;-82
2021/10/26 04:40:02;;;;;;;17.17;10.13;;;5.10;99.90;;;;;;5056802;28;20477;-81
2021/10/26 04:42:30;;;;;;;19.70;10.43;;;5.10;99.90;;;;;;5056368;28;20048;-82
2021/10/26 04:44:57;;;;;;;22.65;10.95;;;5.10;99.90;;;;;;5056696;28;20106;-82
2021/10/26 04:47:25;;;;;;;13.40;9.68;;;5.10;99.90;;;;;;5056631;28;20075;-82
2021/10/26 04:49:51;;;;;;;20.75;11.60;;;5.10;99.90;;;;;;5056052;28;20472;-82
2021/10/26 04:52:18;;;;;;;14.95;10.70;;;5.00;99.90;;;;;;5056370;28;20055;-82
2021/10/26 04:54:45;;;;;;;17.73;11.07;;;5.00;99.90;;;;;;5074076;28;20052;-82
2021/10/26 04:57:11;;;;;;;17.58;12.80;;;5.10;99.90;;;;;;5058861;28;20480;-82
2021/10/26 04:59:38;;;;;;;20.90;12.60;;;5.00;99.90;;;;;;5060182;28;20127;-82
2021/10/26 05:02:05;;;;;;;25.92;12.82;;;4.90;99.90;;;;;;5078044;28;20080;-82
2021/10/26 05:04:32;;;;;;;15.02;11.98;;;4.90;99.90;;;;;;5060279;28;20135;-82
2021/10/26 05:06:59;;;;;;;20.20;11.60;;;4.90;99.90;;;;;;5060020;28;20083;-82
2021/10/26 05:09:29;;;;;;;19.40;12.13;;;5.00;99.90;;;;;;5060238;28;20497;-82
2021/10/26 05:11:55;;;;;;;18.27;12.57;;;5.10;99.90;;;;;;5059965;28;20068;-82
2021/10/26 05:14:22;;;;;;;18.20;12.70;;;5.10;99.90;;;;;;5058851;28;20132;-82
2021/10/26 05:16:49;;;;;;;24.23;11.82;;;5.20;99.90;;;;;;5076651;28;20516;-82
2021/10/26 05:19:17;;;;;;;23.00;13.55;;;5.30;99.90;;;;;;5059666;28;20094;-82
2021/10/26 05:21:44;;;;;;;22.08;13.68;;;5.30;99.90;;;;;;5059775;28;20140;-82
2021/10/26 05:24:10;;;;;;;24.58;14.65;;;5.30;99.90;;;;;;5060099;28;20055;-82
2021/10/26 05:26:37;;;;;;;25.20;14.38;;;5.30;99.90;;;;;;5059760;28;20052;-82
2021/10/26 05:29:04;;;;;;;16.95;12.20;;;5.30;99.90;;;;;;5060357;28;20135;-82
2021/10/26 05:31:31;;;;;;;21.65;12.45;;;5.40;99.90;;;;;;5059735;28;20055;-83
2021/10/26 05:33:57;;;;;;;23.33;11.48;;;5.40;99.90;;;;;;5060484;28;20064;-82
2021/10/26 05:36:24;;;;;;;20.85;12.95;;;5.40;99.90;;;;;;5059288;28;20556;-82
2021/10/26 05:38:51;;;;;;;16.92;12.30;;;5.50;99.90;;;;;;5059405;28;20055;-82
2021/10/26 05:41:18;;;;;;;17.70;12.10;;;5.50;99.90;;;;;;5059184;28;20045;-82
2021/10/26 05:43:45;;;;;;;25.48;14.25;;;5.50;99.90;;;;;;5059312;28;20052;-82
2021/10/26 05:46:12;;;;;;;17.33;12.05;;;5.40;99.90;;;;;;5059470;28;20581;-83
2021/10/26 05:48:38;;;;;;;17.60;12.13;;;5.40;99.90;;;;;;5059099;28;20056;-82
2021/10/26 05:51:05;;;;;;;20.60;13.40;;;5.50;99.90;;;;;;5077797;28;20132;-82
2021/10/26 05:53:33;;;;;;;26.17;14.57;;;5.40;99.90;;;;;;5059460;28;20044;-82
2021/10/26 05:56:00;;;;;;;17.00;11.90;;;5.50;99.90;;;;;;5060203;28;20098;-83
2021/10/26 05:58:27;;;;;;;18.13;12.13;;;5.60;99.90;;;;;;5059842;28;20442;-82
2021/10/26 06:00:54;;;;;;;64.75;50.13;;;5.60;99.90;;;;;;5061059;28;20131;-82
2021/10/26 06:03:21;;;;;;;48.83;35.05;;;5.60;99.90;;;;;;5061105;28;20056;-82
2021/10/26 06:05:48;;;;;;;31.40;22.95;;;5.60;99.90;;;;;;5078295;28;20132;-82
2021/10/26 06:08:15;;;;;;;22.48;17.05;;;5.60;99.90;;;;;;5059540;28;20207;-83
2021/10/26 06:10:49;;;;;;;24.08;15.50;;;5.70;99.90;;;;;;5059902;28;20531;-82
2021/10/26 06:13:23;;;;;;;22.33;14.90;;;5.70;99.90;;;;;;5077720;28;20080;-82
2021/10/26 06:15:51;;;;;;;32.15;18.15;;;5.70;99.90;;;;;;5059750;28;20408;-82
2021/10/26 06:18:18;;;;;;;24.27;16.83;;;5.70;99.90;;;;;;5059454;28;20127;-82
2021/10/26 06:20:45;;;;;;;28.40;15.23;;;5.80;99.90;;;;;;5076574;28;20480;-82
2021/10/26 06:23:13;;;;;;;30.20;14.23;;;5.80;99.90;;;;;;5059070;28;20139;-82
2021/10/26 06:25:39;;;;;;;23.35;12.27;;;5.80;99.90;;;;;;5077273;28;20512;-82
2021/10/26 06:28:06;;;;;;;19.73;12.68;;;5.90;99.90;;;;;;5077374;28;20466;-82
2021/10/26 06:30:33;;;;;;;31.98;15.27;;;5.90;99.90;;;;;;5058485;28;20511;-82
2021/10/26 06:33:00;;;;;;;36.00;18.38;;;6.00;99.90;;;;;;5058946;28;20135;-82
2021/10/26 06:35:27;;;;;;;21.95;13.73;;;6.00;99.90;;;;;;5058929;28;20071;-82
2021/10/26 06:37:54;;;;;;;28.20;15.52;;;6.00;99.90;;;;;;5058617;28;20082;-82
2021/10/26 06:40:22;;;;;;;43.33;24.35;;;6.10;99.90;;;;;;5059135;28;20079;-82
2021/10/26 06:42:49;;;;;;;44.35;23.75;;;6.10;99.90;;;;;;5058957;28;20051;-82
2021/10/26 06:45:15;;;;;;;50.03;26.23;;;6.20;99.90;;;;;;5058849;28;20127;-82
2021/10/26 06:47:42;;;;;;;47.42;25.88;;;6.30;99.90;;;;;;5076446;28;20079;-82
2021/10/26 06:50:09;;;;;;;44.17;25.83;;;6.30;99.90;;;;;;5058588;28;20131;-82
2021/10/26 06:52:37;;;;;;;41.05;23.95;;;6.40;99.90;;;;;;5058617;28;20048;-82
2021/10/26 06:55:07;;;;;;;28.08;17.67;;;6.40;99.90;;;;;;5058494;28;20127;-82
2021/10/26 06:57:34;;;;;;;30.63;17.83;;;6.50;99.90;;;;;;5057767;28;20076;-82
2021/10/26 07:00:05;;;;;;;33.97;21.52;;;6.50;99.90;;;;;;5057967;28;20095;-82
2021/10/26 07:02:31;;;;;;;46.88;29.85;;;6.50;99.90;;;;;;5075893;28;20056;-81
2021/10/26 07:05:01;;;;;;;67.38;40.85;;;6.60;99.90;;;;;;5057992;28;20076;-82
2021/10/26 07:07:28;;;;;;;45.17;29.42;;;6.60;99.90;;;;;;5058030;28;20049;-82
2021/10/26 07:09:55;;;;;;;63.85;40.13;;;6.80;99.90;;;;;;5058099;28;20072;-82
2021/10/26 07:12:22;;;;;;;61.55;33.75;;;6.90;99.90;;;;;;5058338;28;20044;-82
2021/10/26 07:14:49;;;;;;;57.53;33.17;;;7.00;99.90;;;;;;5076177;28;20055;-82
2021/10/26 07:17:16;;;;;;;59.35;33.88;;;7.10;99.90;;;;;;5057477;28;20080;-82
2021/10/26 07:19:42;;;;;;;65.57;35.45;;;7.30;99.90;;;;;;5074770;28;20131;-82
2021/10/26 07:22:09;;;;;;;48.00;29.00;;;7.40;99.90;;;;;;5075035;28;20099;-83
2021/10/26 07:24:36;;;;;;;35.78;21.52;;;7.50;99.90;;;;;;5057384;28;20108;-82
2021/10/26 07:27:03;;;;;;;35.85;19.02;;;7.70;99.90;;;;;;5057556;28;20135;-82
2021/10/26 07:29:30;;;;;;;44.97;25.98;;;7.70;99.90;;;;;;5074915;28;20497;-82
2021/10/26 07:31:57;;;;;;;49.15;26.00;;;7.60;99.90;;;;;;5057843;28;20139;-82
2021/10/26 07:34:24;;;;;;;41.85;22.67;;;7.80;99.90;;;;;;5057492;28;20471;-82
2021/10/26 07:36:51;;;;;;;53.70;28.77;;;7.90;99.90;;;;;;5057570;28;20050;-82
2021/10/26 07:41:53;;;;;;;38.50;21.85;;;8.10;99.90;;;;;;5075345;28;20127;-82
2021/10/26 07:44:20;;;;;;;35.67;17.35;;;8.30;99.90;;;;;;5057823;28;20080;-82
2021/10/26 07:46:47;;;;;;;27.75;15.10;;;8.40;99.90;;;;;;5075250;28;20087;-82
2021/10/26 07:49:13;;;;;;;26.10;12.82;;;8.50;99.90;;;;;;5056926;28;20136;-82
2021/10/26 07:51:40;;;;;;;22.27;12.98;;;8.80;99.90;;;;;;5075010;28;20087;-82
2021/10/26 07:54:07;;;;;;;24.30;11.75;;;9.00;99.90;;;;;;5057050;28;20064;-82
2021/10/26 07:56:34;;;;;;;23.77;11.52;;;9.20;99.90;;;;;;5057336;28;20048;-82
2021/10/26 07:59:02;;;;;;;27.35;11.20;;;9.20;99.90;;;;;;5057337;28;20496;-82
2021/10/26 08:01:29;;;;;;;26.38;10.85;;;9.10;99.90;;;;;;5057266;28;20084;-82
2021/10/26 08:03:57;;;;;;;22.00;9.85;;;9.10;99.90;;;;;;5057159;28;20471;-82
2021/10/26 08:06:27;;;;;;;18.52;9.13;;;9.60;99.90;;;;;;5056614;28;20524;-82
2021/10/26 08:08:53;;;;;;;20.00;9.60;;;10.10;99.90;;;;;;5056701;28;20048;-82
2021/10/26 08:11:20;;;;;;;21.92;9.52;;;10.30;99.90;;;;;;5056947;28;20076;-83
2021/10/26 08:13:47;;;;;;;19.83;9.05;;;10.10;99.90;;;;;;5056841;28;20106;-82
2021/10/26 08:16:14;;;;;;;19.00;8.85;;;10.40;99.90;;;;;;5074930;28;20149;-82
2021/10/26 08:18:42;;;;;;;19.17;7.18;;;10.90;99.90;;;;;;5074212;28;20588;-82
2021/10/26 08:21:12;;;;;;;12.82;7.78;;;11.50;99.90;;;;;;5074138;28;20148;-82
2021/10/26 08:23:41;;;;;;;14.52;7.60;;;11.70;99.90;;;;;;5056682;28;20049;-83
2021/10/26 08:26:19;;;;;;;15.48;7.22;;;12.10;99.90;;;;;;5074270;28;20052;-83
2021/10/26 08:28:49;;;;;;;24.58;17.13;;;12.60;99.90;;;;;;5056614;28;20489;-82
2021/10/26 08:31:23;;;;;;;17.35;9.40;;;12.50;99.90;;;;;;5056345;28;20087;-83
2021/10/26 08:36:20;;;;;;;12.68;6.88;;;14.00;99.90;;;;;;5074819;28;20048;-82
2021/10/26 08:38:46;;;;;;;44.50;9.88;;;14.50;99.90;;;;;;5056281;28;20080;-82
2021/10/26 08:41:14;;;;;;;456.08;231.65;;;15.30;99.90;;;;;;5074516;28;20110;-82
2021/10/26 08:43:45;;;;;;;97.50;42.97;;;15.60;99.90;;;;;;5057434;28;20101;-80
2021/10/26 08:46:12;;;;;;;150.52;76.38;;;16.50;99.90;;;;;;5056305;28;20135;-81
2021/10/26 08:48:41;;;;;;;59.90;34.15;;;17.60;99.90;;;;;;5056533;28;20052;-81
2021/10/26 08:51:09;;;;;;;5.93;4.75;;;17.50;99.90;;;;;;5056655;28;20056;-80
2021/10/26 08:53:35;;;;;;;5.28;4.30;;;17.30;99.90;;;;;;5056532;28;20052;-82
2021/10/26 08:56:03;;;;;;;7.85;6.30;;;16.30;99.90;;;;;;5056370;28;20102;-81
2021/10/26 08:58:33;;;;;;;7.90;4.38;;;16.10;99.90;;;;;;5056141;28;20529;-82
2021/10/26 09:01:01;;;;;;;6.07;4.07;;;15.60;99.90;;;;;;5056073;28;20131;-82
2021/10/26 09:03:36;;;;;;;6.65;4.45;;;15.70;99.90;;;;;;5055847;28;20440;-81
2021/10/26 09:06:04;;;;;;;6.00;4.15;;;15.70;99.90;;;;;;5055494;28;20048;-81
2021/10/26 09:08:31;;;;;;;8.48;4.32;;;16.50;99.90;;;;;;5055737;28;20080;-81
2021/10/26 09:11:23;;;;;;;5.15;4.07;;;16.50;99.90;;;;;;5055803;28;20119;-81
2021/10/26 09:16:48;;;;;;;2.97;2.78;;;17.50;99.90;;;;;;5073733;28;20123;-82
2021/10/26 09:19:18;;;;;;;4.00;3.33;;;18.70;99.90;;;;;;5073936;28;20041;-82
2021/10/26 09:22:02;;;;;;;4.80;3.25;;;17.70;99.90;;;;;;5073575;28;20136;-81
2021/10/26 09:24:29;;;;;;;3.58;3.28;;;17.10;99.90;;;;;;5074348;28;20140;-82
2021/10/26 09:27:04;;;;;;;3.50;3.25;;;16.40;99.90;;;;;;5074381;28;20139;-81
2021/10/26 09:29:38;;;;;;;10.52;3.17;;;15.80;99.90;;;;;;5055657;28;20052;-82
2021/10/26 09:32:12;;;;;;;4.38;2.92;;;15.20;99.90;;;;;;5073784;28;20452;-81
2021/10/26 09:34:55;;;;;;;2.80;2.60;;;14.90;99.90;;;;;;5055809;28;20055;-80
2021/10/26 09:37:32;;;;;;;2.55;2.35;;;14.50;99.90;;;;;;5056276;28;20076;-80
2021/10/26 09:39:59;;;;;;;2.90;2.70;;;14.30;99.90;;;;;;5056571;28;20107;-81
2021/10/26 09:42:27;;;;;;;3.08;2.78;;;14.00;99.90;;;;;;5057849;28;20063;-82
2021/10/26 09:45:02;;;;;;;2.83;2.55;;;13.90;99.90;;;;;;5077984;28;20513;-81
2021/10/26 09:47:34;;;;;;;3.17;2.65;;;13.90;99.90;;;;;;5059960;28;20454;-81
2021/10/26 09:50:07;;;;;;;2.67;2.47;;;14.00;99.90;;;;;;5059750;28;20098;-81
2021/10/26 09:52:47;;;;;;;2.72;2.40;;;13.90;99.90;;;;;;5059294;28;20139;-83
2021/10/26 09:55:24;;;;;;;3.72;2.78;;;13.90;99.90;;;;;;5059326;28;20123;-81
2021/10/26 09:57:57;;;;;;;3.75;2.47;;;13.60;99.90;;;;;;5059925;28;20139;-81
2021/10/26 10:00:29;;;;;;;2.93;2.63;;;13.50;99.90;;;;;;5059810;28;20481;-81
2021/10/26 10:03:00;;;;;;;3.80;2.58;;;13.60;99.90;;;;;;5077199;28;20049;-81
2021/10/26 10:05:29;;;;;;;3.33;2.63;;;13.80;99.90;;;;;;5059194;28;20080;-82
2021/10/26 10:08:20;;;;;;;4.60;2.45;;;13.80;99.90;;;;;;5059131;28;20053;-82
2021/10/26 10:10:51;;;;;;;4.35;2.10;;;14.10;99.90;;;;;;5059703;28;20394;-81
2021/10/26 10:13:19;;;;;;;2.88;2.08;;;14.50;99.90;;;;;;5076685;28;20045;-81
2021/10/26 10:15:47;;;;;;;2.50;2.10;;;14.90;99.90;;;;;;5076738;28;20127;-82
2021/10/26 10:18:19;;;;;;;2.30;2.10;;;15.10;99.90;;;;;;5059570;28;20076;-83
2021/10/26 10:20:51;;;;;;;6.70;2.25;;;15.10;99.90;;;;;;5058703;28;20056;-82
2021/10/26 10:23:19;;;;;;;5.35;2.20;;;14.90;99.90;;;;;;5058777;28;20135;-81
2021/10/26 10:25:47;;;;;;;4.78;2.17;;;14.70;99.90;;;;;;5058540;28;20094;-82
2021/10/26 10:28:17;;;;;;;1.60;1.50;;;15.10;99.90;;;;;;5058340;28;20053;-81
2021/10/26 10:30:44;;;;;;;3.10;2.08;;;15.70;99.90;;;;;;5076463;28;20131;-81
2021/10/26 10:33:11;;;;;;;2.45;1.80;;;15.70;99.90;;;;;;5058556;28;20470;-81
2021/10/26 10:35:38;;;;;;;2.88;1.75;;;15.80;99.90;;;;;;5058233;28;20123;-81
2021/10/26 10:38:06;;;;;;;1.92;1.77;;;15.90;99.90;;;;;;5058248;28;20127;-82
2021/10/26 10:40:33;;;;;;;2.22;2.00;;;15.60;99.90;;;;;;5058635;28;20080;-81
2021/10/26 10:43:00;;;;;;;2.78;2.00;;;15.20;99.90;;;;;;5076580;28;20079;-82
2021/10/26 10:45:41;;;;;;;2.42;2.08;;;15.00;99.90;;;;;;5058192;28;20485;-81
2021/10/26 10:48:27;;;;;;;2.58;2.38;;;15.00;99.90;;;;;;5058473;28;20131;-81
2021/10/26 10:51:10;;;;;;;2.30;2.03;;;14.90;99.90;;;;;;5058409;28;20056;-83
2021/10/26 10:53:38;;;;;;;3.80;2.42;;;14.90;99.90;;;;;;5057247;28;20049;-81
2021/10/26 10:56:20;;;;;;;3.58;2.13;;;15.10;99.90;;;;;;5058127;28;20127;-82
2021/10/26 10:58:49;;;;;;;2.42;2.20;;;15.30;99.90;;;;;;5058781;28;20119;-81
2021/10/26 11:01:23;;;;;;;4.03;2.38;;;15.50;99.90;;;;;;5076288;28;20497;-80
2021/10/26 11:03:53;;;;;;;4.22;1.98;;;15.30;99.90;;;;;;5057818;28;20070;-81
2021/10/26 11:06:42;;;;;;;6.25;2.10;;;15.00;99.90;;;;;;5058189;28;20067;-82
2021/10/26 11:09:31;;;;;;;3.85;2.00;;;14.90;99.90;;;;;;5057839;28;20448;-81
2021/10/26 11:12:21;;;;;;;5.15;1.90;;;15.10;99.90;;;;;;5075156;28;20084;-82
2021/10/26 11:14:49;;;;;;;3.92;1.95;;;16.20;99.90;;;;;;5058377;28;20131;-83
2021/10/26 11:17:35;;;;;;;3.97;1.80;;;17.00;99.90;;;;;;5057587;28;20049;-83
2021/10/26 11:20:04;;;;;;;4.03;2.15;;;18.00;99.90;;;;;;5057695;28;20492;-82
2021/10/26 11:22:51;;;;;;;3.20;2.03;;;18.70;99.90;;;;;;5057650;28;20132;-82
2021/10/26 11:25:19;;;;;;;3.38;2.00;;;18.00;99.90;;;;;;5057641;28;20083;-82
2021/10/26 11:39:14;;;;;;;3.10;2.10;;;15.80;99.90;;;;;;5585848;22;20099;-89
2021/10/26 11:41:43;;;;;;;2.88;2.20;;;16.30;99.90;;;;;;5039414;28;20053;-91
2021/10/26 11:44:15;;;;;;;2.30;2.15;;;16.00;99.90;;;;;;5038755;28;20041;-90
2021/10/26 11:46:45;;;;;;;2.23;2.03;;;15.90;99.90;;;;;;5038708;28;20059;-92
2021/10/26 11:49:26;;;;;;;3.33;2.20;;;15.40;99.90;;;;;;5038402;28;20048;-91
2021/10/26 11:51:55;;;;;;;3.50;2.22;;;14.80;99.90;;;;;;5037282;28;20132;-88
2021/10/26 11:54:27;;;;;;;1.67;1.65;;;14.40;99.90;;;;;;5038593;28;20486;-88
2021/10/26 11:56:58;;;;;;;2.53;1.83;;;14.40;99.90;;;;;;5037184;28;20210;-91
2021/10/26 11:59:29;;;;;;;3.13;2.22;;;14.70;99.90;;;;;;5037005;28;20049;-93
2021/10/26 12:02:03;;;;;;;2.03;1.67;;;15.00;99.90;;;;;;5036954;28;20452;-90
2021/10/26 12:04:31;;;;;;;;;;;15.00;99.90;;;;;;5037626;28;20048;-87
2021/10/26 12:07:20;;;;;;;3.00;2.25;;;15.00;99.90;;;;;;5038451;28;19970;-89
2021/10/26 12:09:51;;;;;;;3.53;2.08;;;14.80;99.90;;;;;;5037687;28;20056;-91
2021/10/26 12:12:24;;;;;;;2.40;2.20;;;14.70;99.90;;;;;;5037181;28;20478;-93
2021/10/26 12:14:53;;;;;;;6.55;3.20;;;14.50;99.90;;;;;;5036110;28;20144;-89
2021/10/26 12:17:28;;;;;;;3.10;2.45;;;14.40;99.90;;;;;;5036861;28;20129;-91
2021/10/26 12:20:03;;;;;;;3.63;2.30;;;14.20;99.90;;;;;;5036546;28;20489;-90
2021/10/26 12:22:35;;;;;;;4.10;2.33;;;14.00;99.90;;;;;;5036900;28;20049;-91
2021/10/26 12:25:21;;;;;;;7.30;2.28;;;14.00;99.90;;;;;;5037355;28;20051;-90
2021/10/26 12:28:03;;;;;;;5.10;2.55;;;13.90;99.90;;;;;;5036464;28;20044;-91
2021/10/26 12:30:35;;;;;;;5.93;2.42;;;13.80;99.90;;;;;;5035857;28;20044;-89
2021/10/26 12:33:22;;;;;;;9.80;2.70;;;13.70;99.90;;;;;;5035797;28;20096;-90
2021/10/26 12:35:53;;;;;;;6.45;2.22;;;13.70;99.90;;;;;;5035850;28;20464;-91
2021/10/26 12:38:29;;;;;;;6.45;2.30;;;13.80;99.90;;;;;;5036700;28;20055;-91
2021/10/26 12:41:02;;;;;;;5.60;2.45;;;13.90;99.90;;;;;;5036405;28;20041;-92
2021/10/26 12:43:29;;;;;;;3.33;2.10;;;14.00;99.90;;;;;;5038343;28;20133;-93
2021/10/26 12:46:20;;;;;;;3.80;2.28;;;14.20;99.90;;;;;;5035963;28;20141;-93
2021/10/26 12:48:47;;;;;;;9.27;2.75;;;14.40;99.90;;;;;;5037365;28;20057;-91
2021/10/26 12:51:22;;;;;;;7.05;2.90;;;14.40;99.90;;;;;;5037063;28;20436;-91
2021/10/26 12:53:49;;;;;;;2.53;2.33;;;14.70;99.90;;;;;;5036818;28;20188;-92
2021/10/26 12:56:19;;;;;;;4.10;2.75;;;15.00;99.90;;;;;;5036236;28;20072;-90
2021/10/26 12:58:48;;;;;;;9.60;3.47;;;15.10;99.90;;;;;;5036054;28;20410;-92
2021/10/26 13:01:28;;;;;;;6.53;3.28;;;14.80;99.90;;;;;;5036057;28;20139;-88
2021/10/26 13:04:10;;;;;;;6.30;3.70;;;14.60;99.90;;;;;;5038369;28;20083;-92
2021/10/26 13:06:37;;;;;;;4.22;3.70;;;14.60;99.90;;;;;;5036376;28;20045;-92
2021/10/26 13:09:07;;;;;;;4.65;3.47;;;14.30;99.90;;;;;;5037236;28;20057;-92
2021/10/26 13:11:35;;;;;;;4.43;3.80;;;14.20;99.90;;;;;;5037315;28;20045;-90